Time;durP1;ratioP1;P1;durP2;ratioP2;P2;SDS_P1;SDS_P2;PMS_P1;PMS_P2;Temp;Humidity;BMP_temperature;BMP_pressure;BME280_temperature;BME280_humidity;BME280_pressure;Samples;Min_cycle;Max_cycle;Signal;HPM_P1;HPM_P2
2023/04/24 00:00:14;;;;;;;7.03;0.73;;;;;;;;;;1028077;28;20027;-72
2023/04/24 00:00:45;;;;;;;0.82;0.75;;;;;;;;;;1028974;28;20414;-72
2023/04/24 00:01:16;;;;;;;3.20;1.85;;;;;;;;;;1032652;28;20050;-72
2023/04/24 00:01:47;;;;;;;2.65;0.85;;;;;;;;;;1027386;28;20090;-72
2023/04/24 00:02:18;;;;;;;5.40;1.20;;;;;;;;;;1028293;28;20114;-72
2023/04/24 00:02:50;;;;;;;4.05;1.63;;;;;;;;;;1027830;28;20042;-72
2023/04/24 00:03:20;;;;;;;5.53;1.17;;;;;;;;;;1028418;28;20511;-72
2023/04/24 00:03:51;;;;;;;4.68;1.63;;;;;;;;;;1032266;28;20026;-72
2023/04/24 00:04:21;;;;;;;2.88;1.48;;;;;;;;;;1028046;28;20439;-72
2023/04/24 00:04:52;;;;;;;1.73;1.27;;;;;;;;;;1028214;28;20038;-72
2023/04/24 00:05:23;;;;;;;3.33;1.17;;;;;;;;;;1027922;28;20023;-72
2023/04/24 00:05:54;;;;;;;5.78;1.45;;;;;;;;;;1027373;28;20159;-72
2023/04/24 00:06:32;;;;;;;1.48;0.80;;;;;;;;;;1025844;28;20187;-72
2023/04/24 00:07:03;;;;;;;2.85;0.70;;;;;;;;;;1026760;28;20022;-72
2023/04/24 00:07:34;;;;;;;5.28;2.30;;;;;;;;;;1029307;28;20050;-72
2023/04/24 00:08:04;;;;;;;3.72;1.85;;;;;;;;;;1028120;28;20050;-72
2023/04/24 00:08:35;;;;;;;1.55;1.38;;;;;;;;;;1028016;28;20019;-72
2023/04/24 00:09:06;;;;;;;1.65;1.02;;;;;;;;;;1028210;28;20023;-72
2023/04/24 00:09:36;;;;;;;9.30;1.38;;;;;;;;;;1024602;29;20043;-72
2023/04/24 00:10:08;;;;;;;9.13;1.20;;;;;;;;;;1024240;29;20023;-73
2023/04/24 00:10:38;;;;;;;1.55;0.85;;;;;;;;;;1024155;28;20031;-73
2023/04/24 00:11:09;;;;;;;4.78;1.95;;;;;;;;;;1028573;28;20033;-72
2023/04/24 00:11:39;;;;;;;0.85;0.70;;;;;;;;;;1032502;28;20113;-72
2023/04/24 00:12:10;;;;;;;1.48;0.68;;;;;;;;;;1033180;28;20028;-72
2023/04/24 00:12:41;;;;;;;0.85;0.68;;;;;;;;;;1032372;28;20477;-72
2023/04/24 00:13:11;;;;;;;2.00;1.35;;;;;;;;;;1032437;28;20030;-72
2023/04/24 00:13:42;;;;;;;2.83;1.58;;;;;;;;;;1032224;28;20113;-72
2023/04/24 00:14:12;;;;;;;0.73;0.50;;;;;;;;;;1032735;28;20160;-72
2023/04/24 00:14:43;;;;;;;7.03;0.98;;;;;;;;;;1032325;28;20212;-72
2023/04/24 00:15:13;;;;;;;1.13;0.82;;;;;;;;;;1032441;28;20113;-72
2023/04/24 00:15:43;;;;;;;1.55;0.60;;;;;;;;;;1027969;28;20117;-72
2023/04/24 00:16:14;;;;;;;2.42;0.70;;;;;;;;;;1028630;28;20039;-73
2023/04/24 00:16:44;;;;;;;1.75;1.20;;;;;;;;;;1028180;28;20029;-73
2023/04/24 00:17:15;;;;;;;0.88;0.82;;;;;;;;;;1028266;28;20061;-72
2023/04/24 00:17:46;;;;;;;1.10;1.00;;;;;;;;;;1028377;28;20015;-72
2023/04/24 00:18:16;;;;;;;1.02;0.93;;;;;;;;;;1028284;28;20037;-72
2023/04/24 00:18:47;;;;;;;1.02;0.82;;;;;;;;;;1031307;28;20022;-72
2023/04/24 00:19:21;;;;;;;2.70;1.27;;;;;;;;;;1032653;28;20438;-72
2023/04/24 00:19:57;;;;;;;2.30;1.25;;;;;;;;;;1032280;28;20028;-72
2023/04/24 00:20:29;;;;;;;0.52;0.52;;;;;;;;;;1032279;28;20461;-72
2023/04/24 00:20:59;;;;;;;1.05;0.93;;;;;;;;;;1032933;28;20474;-72
2023/04/24 00:21:32;;;;;;;2.55;1.75;;;;;;;;;;1032273;28;20108;-72
2023/04/24 00:22:03;;;;;;;4.13;0.85;;;;;;;;;;1032477;28;20033;-72
2023/04/24 00:22:33;;;;;;;34.10;1.33;;;;;;;;;;1032367;28;20061;-72
2023/04/24 00:23:04;;;;;;;6.60;1.65;;;;;;;;;;1032440;28;20393;-72
2023/04/24 00:23:34;;;;;;;2.58;0.73;;;;;;;;;;1032338;28;20026;-72
2023/04/24 00:24:05;;;;;;;2.05;1.08;;;;;;;;;;1032608;28;20022;-72
2023/04/24 00:24:35;;;;;;;1.75;1.35;;;;;;;;;;1032128;28;20068;-73
2023/04/24 00:25:06;;;;;;;1.50;1.33;;;;;;;;;;1032448;28;20496;-73
2023/04/24 00:25:36;;;;;;;1.30;0.60;;;;;;;;;;1032697;28;20466;-72
2023/04/24 00:26:07;;;;;;;4.38;2.63;;;;;;;;;;1032507;28;20398;-72
2023/04/24 00:26:37;;;;;;;2.60;1.17;;;;;;;;;;1032469;28;20036;-72
2023/04/24 00:27:08;;;;;;;3.85;1.50;;;;;;;;;;1032337;28;20117;-72
2023/04/24 00:27:38;;;;;;;2.75;1.15;;;;;;;;;;1032227;28;20030;-72
2023/04/24 00:28:09;;;;;;;6.80;0.93;;;;;;;;;;1032701;28;20009;-72
2023/04/24 00:28:39;;;;;;;2.22;1.55;;;;;;;;;;1027855;28;20118;-72
2023/04/24 00:29:10;;;;;;;6.65;1.65;;;;;;;;;;1028283;28;20057;-72
2023/04/24 00:29:40;;;;;;;6.40;2.42;;;;;;;;;;1027976;28;20057;-72
2023/04/24 00:30:11;;;;;;;1.38;1.15;;;;;;;;;;1028571;28;20022;-72
2023/04/24 00:30:41;;;;;;;1.75;1.45;;;;;;;;;;1032264;28;20117;-72
2023/04/24 00:31:12;;;;;;;1.55;0.88;;;;;;;;;;1032508;28;20022;-72
2023/04/24 00:31:42;;;;;;;5.90;1.60;;;;;;;;;;1032151;28;20046;-72
2023/04/24 00:32:13;;;;;;;4.10;1.15;;;;;;;;;;1032674;28;20030;-72
2023/04/24 00:32:44;;;;;;;10.38;1.83;;;;;;;;;;1028687;28;20026;-72
2023/04/24 00:33:14;;;;;;;12.75;2.95;;;;;;;;;;1028226;28;20414;-72
2023/04/24 00:33:45;;;;;;;4.40;3.08;;;;;;;;;;1027674;28;20035;-73
2023/04/24 00:34:15;;;;;;;1.65;1.45;;;;;;;;;;1028096;28;20022;-73
2023/04/24 00:34:46;;;;;;;4.38;2.05;;;;;;;;;;1028298;28;20038;-73
2023/04/24 00:35:16;;;;;;;2.67;2.00;;;;;;;;;;1028103;28;20037;-73
2023/04/24 00:35:47;;;;;;;3.10;0.73;;;;;;;;;;1032065;28;20046;-73
2023/04/24 00:36:19;;;;;;;3.03;1.88;;;;;;;;;;1032119;28;20089;-73
2023/04/24 00:36:52;;;;;;;3.38;2.38;;;;;;;;;;1032147;28;20014;-73
2023/04/24 00:37:22;;;;;;;5.65;1.98;;;;;;;;;;1032987;28;20072;-73
2023/04/24 00:37:53;;;;;;;2.33;1.80;;;;;;;;;;1031656;28;20073;-73
2023/04/24 00:38:24;;;;;;;6.57;3.33;;;;;;;;;;1032290;28;20549;-73
2023/04/24 00:38:55;;;;;;;5.57;3.15;;;;;;;;;;1032383;28;20033;-73
2023/04/24 00:39:25;;;;;;;8.82;2.33;;;;;;;;;;1032372;28;20457;-73
2023/04/24 00:39:56;;;;;;;8.82;3.60;;;;;;;;;;1027838;28;20022;-73
2023/04/24 00:40:27;;;;;;;7.28;2.20;;;;;;;;;;1027554;28;20059;-73
2023/04/24 00:40:57;;;;;;;15.60;3.78;;;;;;;;;;1027848;28;20464;-73
2023/04/24 00:41:28;;;;;;;6.50;3.55;;;;;;;;;;1027629;28;20467;-73
2023/04/24 00:41:59;;;;;;;21.20;5.30;;;;;;;;;;1028547;28;20031;-73
2023/04/24 00:42:30;;;;;;;4.72;2.03;;;;;;;;;;1028186;28;20114;-72
2023/04/24 00:43:00;;;;;;;39.63;3.67;;;;;;;;;;1032369;28;20024;-72
2023/04/24 00:43:31;;;;;;;5.03;2.20;;;;;;;;;;1032069;28;20022;-72
2023/04/24 00:44:01;;;;;;;6.80;2.60;;;;;;;;;;1032938;28;20093;-73
2023/04/24 00:44:32;;;;;;;3.90;2.25;;;;;;;;;;1032132;28;20033;-73
2023/04/24 00:45:03;;;;;;;2.05;1.33;;;;;;;;;;1032268;28;20093;-73
2023/04/24 00:45:34;;;;;;;9.57;2.63;;;;;;;;;;1027349;28;20021;-73
2023/04/24 00:46:05;;;;;;;11.85;4.18;;;;;;;;;;1027394;28;20497;-73
2023/04/24 00:46:36;;;;;;;12.32;4.80;;;;;;;;;;1028246;28;20034;-73
2023/04/24 00:47:07;;;;;;;6.18;3.78;;;;;;;;;;1028105;28;20026;-73
2023/04/24 00:47:38;;;;;;;10.23;3.55;;;;;;;;;;1027394;28;20403;-73
2023/04/24 00:48:08;;;;;;;64.70;18.63;;;;;;;;;;1028150;28;20025;-72
2023/04/24 00:48:39;;;;;;;53.92;22.00;;;;;;;;;;1028545;28;20025;-73
2023/04/24 00:49:10;;;;;;;65.07;31.08;;;;;;;;;;1028249;28;20061;-73
2023/04/24 00:49:40;;;;;;;109.07;39.80;;;;;;;;;;1031840;28;20029;-73
2023/04/24 00:50:13;;;;;;;117.40;51.40;;;;;;;;;;1032157;28;20026;-73
2023/04/24 00:50:44;;;;;;;108.88;47.75;;;;;;;;;;1027755;28;20025;-73
2023/04/24 00:51:14;;;;;;;81.80;35.80;;;;;;;;;;1028075;28;20034;-73
2023/04/24 00:51:45;;;;;;;60.80;24.52;;;;;;;;;;1026915;28;20074;-73
2023/04/24 00:52:17;;;;;;;40.63;17.52;;;;;;;;;;1028040;28;20033;-73
2023/04/24 00:52:48;;;;;;;60.90;15.80;;;;;;;;;;1024732;28;20023;-73
2023/04/24 00:53:18;;;;;;;30.45;16.02;;;;;;;;;;1026602;28;20066;-73
2023/04/24 00:53:49;;;;;;;34.42;15.77;;;;;;;;;;1027767;28;20023;-73
2023/04/24 00:54:20;;;;;;;29.83;14.85;;;;;;;;;;1024087;28;20106;-73
2023/04/24 00:54:50;;;;;;;42.53;10.27;;;;;;;;;;1027768;28;20054;-73
2023/04/24 00:55:21;;;;;;;12.80;5.53;;;;;;;;;;1026587;28;20113;-73
2023/04/24 00:55:51;;;;;;;6.97;3.67;;;;;;;;;;1027485;28;20023;-73
2023/04/24 00:56:21;;;;;;;17.48;4.03;;;;;;;;;;1030842;28;20429;-73
2023/04/24 00:56:52;;;;;;;23.70;4.47;;;;;;;;;;1028031;28;20077;-73
2023/04/24 00:57:23;;;;;;;36.13;11.18;;;;;;;;;;1025064;28;20023;-73
2023/04/24 00:57:54;;;;;;;74.40;19.45;;;;;;;;;;1025710;28;20121;-73
2023/04/24 00:58:24;;;;;;;70.88;31.17;;;;;;;;;;1021294;29;20027;-73
2023/04/24 00:58:55;;;;;;;141.10;42.35;;;;;;;;;;1023897;29;20022;-73
2023/04/24 00:59:26;;;;;;;88.97;40.03;;;;;;;;;;1027368;28;20038;-72
2023/04/24 00:59:57;;;;;;;76.75;37.78;;;;;;;;;;1027208;28;20035;-73
2023/04/24 01:00:27;;;;;;;83.43;36.90;;;;;;;;;;1031361;28;20425;-73
2023/04/24 01:00:58;;;;;;;193.10;70.20;;;;;;;;;;1031545;28;20030;-73
2023/04/24 01:01:30;;;;;;;101.13;36.90;;;;;;;;;;1031745;28;20033;-73
2023/04/24 01:02:00;;;;;;;43.85;19.13;;;;;;;;;;1031785;28;20026;-73
2023/04/24 01:02:34;;;;;;;15.85;5.68;;;;;;;;;;1027870;28;20022;-73
2023/04/24 01:03:05;;;;;;;6.00;3.28;;;;;;;;;;1027967;28;20062;-73
2023/04/24 01:03:36;;;;;;;3.13;2.63;;;;;;;;;;1023275;29;20671;-73
2023/04/24 01:04:08;;;;;;;6.03;3.00;;;;;;;;;;1023825;28;20523;-73
2023/04/24 01:04:40;;;;;;;10.20;3.08;;;;;;;;;;1027520;28;20026;-73
2023/04/24 01:05:11;;;;;;;4.60;2.42;;;;;;;;;;1028677;28;20031;-73
2023/04/24 01:05:42;;;;;;;6.07;3.80;;;;;;;;;;1031661;28;20478;-73
2023/04/24 01:06:13;;;;;;;6.45;3.60;;;;;;;;;;1032355;28;20010;-73
2023/04/24 01:06:45;;;;;;;13.55;6.47;;;;;;;;;;1031342;28;20372;-73
2023/04/24 01:07:16;;;;;;;10.32;2.45;;;;;;;;;;1031323;28;20032;-73
2023/04/24 01:07:48;;;;;;;2.40;1.33;;;;;;;;;;1031981;28;20033;-73
2023/04/24 01:08:19;;;;;;;3.38;1.63;;;;;;;;;;1031172;28;20113;-73
2023/04/24 01:08:50;;;;;;;6.45;1.65;;;;;;;;;;1027477;28;20027;-73
2023/04/24 01:09:21;;;;;;;7.43;2.33;;;;;;;;;;1027702;28;20026;-73
2023/04/24 01:09:52;;;;;;;9.73;2.78;;;;;;;;;;1027514;28;20134;-73
2023/04/24 01:10:23;;;;;;;6.43;2.13;;;;;;;;;;1027903;28;20146;-73
2023/04/24 01:10:54;;;;;;;2.45;1.50;;;;;;;;;;1028009;28;20101;-73
2023/04/24 01:11:24;;;;;;;3.08;1.98;;;;;;;;;;1027644;28;20023;-73
2023/04/24 01:11:56;;;;;;;2.35;1.38;;;;;;;;;;1026639;28;20039;-73
2023/04/24 01:12:26;;;;;;;4.57;1.95;;;;;;;;;;1027220;28;20033;-73
2023/04/24 01:12:57;;;;;;;2.33;1.67;;;;;;;;;;1023149;28;20054;-73
2023/04/24 01:13:28;;;;;;;1.08;0.85;;;;;;;;;;1026820;28;20023;-73
2023/04/24 01:13:59;;;;;;;2.50;0.68;;;;;;;;;;1027430;28;20117;-73
2023/04/24 01:14:30;;;;;;;11.77;1.52;;;;;;;;;;1023752;28;20500;-73
2023/04/24 01:15:01;;;;;;;1.90;1.30;;;;;;;;;;1027035;28;20040;-73
2023/04/24 01:15:31;;;;;;;2.50;1.30;;;;;;;;;;1027620;28;20459;-73
2023/04/24 01:16:02;;;;;;;1.55;1.10;;;;;;;;;;1024354;28;20491;-73
2023/04/24 01:16:33;;;;;;;2.30;1.70;;;;;;;;;;1027714;28;20019;-75
2023/04/24 01:17:03;;;;;;;7.97;2.42;;;;;;;;;;1027667;28;20031;-75
2023/04/24 01:17:34;;;;;;;6.22;3.05;;;;;;;;;;1027469;28;20027;-75
2023/04/24 01:18:04;;;;;;;2.40;1.73;;;;;;;;;;1025727;28;20627;-75
2023/04/24 01:18:35;;;;;;;3.20;1.73;;;;;;;;;;1022551;29;20051;-75
2023/04/24 01:19:06;;;;;;;15.93;3.35;;;;;;;;;;1023153;29;20022;-76
2023/04/24 01:19:37;;;;;;;6.30;3.33;;;;;;;;;;1020152;29;20067;-76
2023/04/24 01:20:08;;;;;;;7.47;4.38;;;;;;;;;;1026382;28;20095;-76
2023/04/24 01:20:39;;;;;;;7.20;1.92;;;;;;;;;;1024575;28;20130;-75
2023/04/24 01:21:12;;;;;;;3.05;2.50;;;;;;;;;;1028335;28;20015;-75
2023/04/24 01:21:43;;;;;;;5.82;3.83;;;;;;;;;;1030958;28;20018;-74
2023/04/24 01:22:14;;;;;;;8.55;4.88;;;;;;;;;;1029711;28;20030;-74
2023/04/24 01:22:45;;;;;;;8.32;4.60;;;;;;;;;;1027272;28;20054;-75
2023/04/24 01:23:16;;;;;;;10.15;5.97;;;;;;;;;;1021787;29;20041;-75
2023/04/24 01:23:46;;;;;;;12.80;7.60;;;;;;;;;;1018692;29;20535;-74
2023/04/24 01:24:19;;;;;;;14.65;7.05;;;;;;;;;;1018409;28;20066;-73
2023/04/24 01:24:49;;;;;;;16.90;8.85;;;;;;;;;;1021819;28;20451;-73
2023/04/24 01:25:20;;;;;;;9.38;5.95;;;;;;;;;;1025110;28;20460;-73
2023/04/24 01:25:51;;;;;;;12.60;4.40;;;;;;;;;;1026108;28;20394;-73
2023/04/24 01:26:22;;;;;;;10.98;6.90;;;;;;;;;;1020912;28;20046;-73
2023/04/24 01:26:53;;;;;;;17.42;6.80;;;;;;;;;;1020142;28;20039;-73
2023/04/24 01:27:23;;;;;;;19.25;6.60;;;;;;;;;;1021957;28;20381;-73
2023/04/24 01:27:53;;;;;;;16.80;10.20;;;;;;;;;;1027270;28;20057;-73
2023/04/24 01:28:24;;;;;;;35.05;18.65;;;;;;;;;;1029487;28;20057;-73
2023/04/24 01:28:55;;;;;;;37.45;18.35;;;;;;;;;;1030784;28;20128;-73
2023/04/24 01:29:26;;;;;;;34.63;15.20;;;;;;;;;;1024601;28;20026;-73
2023/04/24 01:29:56;;;;;;;26.38;10.30;;;;;;;;;;1027010;28;20030;-73
2023/04/24 01:30:27;;;;;;;16.80;8.30;;;;;;;;;;1026407;28;20034;-73
2023/04/24 01:30:58;;;;;;;8.77;6.00;;;;;;;;;;1026534;28;20030;-73
2023/04/24 01:31:28;;;;;;;11.00;5.85;;;;;;;;;;1024801;28;20118;-73
2023/04/24 01:31:59;;;;;;;21.15;6.95;;;;;;;;;;1021455;28;21070;-73
2023/04/24 01:32:30;;;;;;;11.88;7.55;;;;;;;;;;1024034;28;20031;-73
2023/04/24 01:33:01;;;;;;;25.42;6.53;;;;;;;;;;1026410;28;20088;-73
2023/04/24 01:33:31;;;;;;;7.70;5.32;;;;;;;;;;1027308;28;20096;-73
2023/04/24 01:34:02;;;;;;;19.90;4.72;;;;;;;;;;1031445;28;20050;-75
2023/04/24 01:34:33;;;;;;;10.77;3.95;;;;;;;;;;1030748;28;20037;-75
2023/04/24 01:35:04;;;;;;;8.40;4.50;;;;;;;;;;1031102;28;20034;-74
2023/04/24 01:35:35;;;;;;;14.75;6.80;;;;;;;;;;1029853;28;20728;-73
2023/04/24 01:36:07;;;;;;;21.42;5.90;;;;;;;;;;1031372;28;20034;-73
2023/04/24 01:36:38;;;;;;;12.13;5.13;;;;;;;;;;1029838;28;20030;-73
2023/04/24 01:37:08;;;;;;;20.50;6.60;;;;;;;;;;1029604;28;20375;-73
2023/04/24 01:37:39;;;;;;;19.80;4.97;;;;;;;;;;1030016;28;20513;-73
2023/04/24 01:38:09;;;;;;;15.50;6.70;;;;;;;;;;1030822;28;20026;-73
2023/04/24 01:38:40;;;;;;;22.65;7.80;;;;;;;;;;1029326;28;20027;-73
2023/04/24 01:39:10;;;;;;;18.13;7.80;;;;;;;;;;1031185;28;20042;-73
2023/04/24 01:39:41;;;;;;;23.70;9.75;;;;;;;;;;1025213;28;20027;-73
2023/04/24 01:40:11;;;;;;;7.60;4.15;;;;;;;;;;1025345;28;20026;-74
2023/04/24 01:40:42;;;;;;;15.77;4.40;;;;;;;;;;1026242;28;20369;-74
2023/04/24 01:41:12;;;;;;;13.32;5.13;;;;;;;;;;1027221;28;20027;-74
2023/04/24 01:41:43;;;;;;;7.68;4.70;;;;;;;;;;1029284;28;20553;-74
2023/04/24 01:42:14;;;;;;;8.02;5.30;;;;;;;;;;1029479;28;20043;-74
2023/04/24 01:42:45;;;;;;;20.50;7.65;;;;;;;;;;1029492;28;20026;-74
2023/04/24 01:43:15;;;;;;;14.40;6.35;;;;;;;;;;1028780;28;20030;-74
2023/04/24 01:43:46;;;;;;;15.13;4.97;;;;;;;;;;1028204;28;20502;-74
2023/04/24 01:44:17;;;;;;;15.18;3.28;;;;;;;;;;1029707;28;20037;-74
2023/04/24 01:44:47;;;;;;;10.82;2.95;;;;;;;;;;1025316;28;20082;-74
2023/04/24 01:45:18;;;;;;;2.83;1.42;;;;;;;;;;1023177;28;20022;-74
2023/04/24 01:45:48;;;;;;;8.90;3.15;;;;;;;;;;1020092;29;20027;-74
2023/04/24 01:46:19;;;;;;;12.38;2.75;;;;;;;;;;1019301;28;20038;-74
2023/04/24 01:46:50;;;;;;;8.40;2.55;;;;;;;;;;1023096;28;20119;-74
2023/04/24 01:47:20;;;;;;;10.60;2.38;;;;;;;;;;1023272;28;20053;-74
2023/04/24 01:47:51;;;;;;;3.75;1.88;;;;;;;;;;1024860;28;20027;-74
2023/04/24 01:48:22;;;;;;;5.03;2.17;;;;;;;;;;1022494;28;20031;-74
2023/04/24 01:48:53;;;;;;;13.35;3.50;;;;;;;;;;1022629;28;20443;-74
2023/04/24 01:49:23;;;;;;;1.83;1.67;;;;;;;;;;1021732;28;20149;-74
2023/04/24 01:49:53;;;;;;;3.40;2.15;;;;;;;;;;1026011;28;20422;-74
2023/04/24 01:50:24;;;;;;;5.88;2.22;;;;;;;;;;1025604;28;20034;-75
2023/04/24 01:50:55;;;;;;;11.45;2.55;;;;;;;;;;1025857;28;20046;-74
2023/04/24 01:51:26;;;;;;;1.88;1.15;;;;;;;;;;1023577;28;20190;-74
2023/04/24 01:51:57;;;;;;;3.17;1.40;;;;;;;;;;1025300;28;20031;-74
2023/04/24 01:52:30;;;;;;;7.40;1.45;;;;;;;;;;1023986;28;20034;-74
2023/04/24 01:53:01;;;;;;;2.92;1.98;;;;;;;;;;1026068;28;20030;-74
2023/04/24 01:53:31;;;;;;;12.90;2.20;;;;;;;;;;1023930;28;20210;-74
2023/04/24 01:54:02;;;;;;;16.00;3.50;;;;;;;;;;1029143;28;20092;-74
2023/04/24 01:54:33;;;;;;;6.05;3.47;;;;;;;;;;1024271;28;20031;-74
2023/04/24 01:55:04;;;;;;;5.47;3.08;;;;;;;;;;1025113;28;20482;-74
2023/04/24 01:55:35;;;;;;;18.60;5.55;;;;;;;;;;1025475;28;20094;-73
2023/04/24 01:56:06;;;;;;;4.78;1.80;;;;;;;;;;1026002;28;20520;-73
2023/04/24 01:56:41;;;;;;;8.43;3.53;;;;;;;;;;1022798;28;20038;-73
2023/04/24 01:57:13;;;;;;;15.80;4.80;;;;;;;;;;1024133;28;20076;-73
2023/04/24 01:57:43;;;;;;;9.13;3.53;;;;;;;;;;1025094;28;20026;-73
2023/04/24 01:58:15;;;;;;;7.40;2.65;;;;;;;;;;1025390;28;20018;-73
2023/04/24 01:58:46;;;;;;;7.95;2.60;;;;;;;;;;1026059;28;20664;-73
2023/04/24 01:59:17;;;;;;;4.78;2.58;;;;;;;;;;1026314;28;20058;-73
2023/04/24 01:59:47;;;;;;;8.30;3.78;;;;;;;;;;1025562;28;20436;-73
2023/04/24 02:00:17;;;;;;;13.05;5.30;;;;;;;;;;1025780;28;20483;-73
2023/04/24 02:00:48;;;;;;;25.45;4.45;;;;;;;;;;1025461;28;20078;-73
2023/04/24 02:01:23;;;;;;;7.93;4.38;;;;;;;;;;1024926;28;20022;-73
2023/04/24 02:01:53;;;;;;;8.27;4.18;;;;;;;;;;1025939;28;20075;-73
2023/04/24 02:02:27;;;;;;;13.27;4.00;;;;;;;;;;1028227;28;20220;-73
2023/04/24 02:02:57;;;;;;;6.78;3.80;;;;;;;;;;1029010;28;20037;-73
2023/04/24 02:03:28;;;;;;;8.88;3.97;;;;;;;;;;1026921;28;20031;-73
2023/04/24 02:03:58;;;;;;;13.57;5.75;;;;;;;;;;1029260;28;20045;-73
2023/04/24 02:04:30;;;;;;;5.82;2.25;;;;;;;;;;1024455;28;20481;-73
2023/04/24 02:05:00;;;;;;;6.40;3.05;;;;;;;;;;1024357;28;20643;-73
2023/04/24 02:05:31;;;;;;;10.98;3.58;;;;;;;;;;1025331;28;20031;-73
2023/04/24 02:06:01;;;;;;;6.35;3.55;;;;;;;;;;1025126;28;20401;-73
2023/04/24 02:06:32;;;;;;;7.00;2.33;;;;;;;;;;1020496;28;20045;-74
2023/04/24 02:07:02;;;;;;;14.57;2.95;;;;;;;;;;1021964;29;20467;-75
2023/04/24 02:07:33;;;;;;;3.47;1.77;;;;;;;;;;1017354;29;20557;-74
2023/04/24 02:08:03;;;;;;;3.83;1.60;;;;;;;;;;1013796;29;20034;-74
2023/04/24 02:08:34;;;;;;;16.80;2.42;;;;;;;;;;1013588;29;20477;-74
2023/04/24 02:09:04;;;;;;;3.10;1.92;;;;;;;;;;1018656;29;20020;-74
2023/04/24 02:09:35;;;;;;;4.10;1.73;;;;;;;;;;1021605;28;20506;-74
2023/04/24 02:10:06;;;;;;;3.72;2.17;;;;;;;;;;1026585;28;20026;-74
2023/04/24 02:10:36;;;;;;;4.45;2.63;;;;;;;;;;1030420;28;20050;-74
2023/04/24 02:11:08;;;;;;;10.60;1.67;;;;;;;;;;1031226;28;20453;-75
2023/04/24 02:11:39;;;;;;;14.65;3.42;;;;;;;;;;1028767;28;20465;-73
2023/04/24 02:12:09;;;;;;;5.00;2.60;;;;;;;;;;1029801;28;20034;-73
2023/04/24 02:12:40;;;;;;;11.73;1.40;;;;;;;;;;1029772;28;20441;-73
2023/04/24 02:13:10;;;;;;;5.07;1.92;;;;;;;;;;1031373;28;20486;-73
2023/04/24 02:13:41;;;;;;;8.00;1.98;;;;;;;;;;1025807;28;20121;-73
2023/04/24 02:14:11;;;;;;;20.95;3.03;;;;;;;;;;1022791;28;20019;-73
2023/04/24 02:14:42;;;;;;;5.53;2.63;;;;;;;;;;1025507;28;20066;-73
2023/04/24 02:15:12;;;;;;;13.93;3.53;;;;;;;;;;1026150;28;20037;-73
2023/04/24 02:15:43;;;;;;;27.73;3.95;;;;;;;;;;1028848;28;20125;-73
2023/04/24 02:16:14;;;;;;;3.95;1.63;;;;;;;;;;1028869;28;20030;-73
2023/04/24 02:16:44;;;;;;;2.75;2.53;;;;;;;;;;1029620;28;20014;-73
2023/04/24 02:17:16;;;;;;;17.35;2.33;;;;;;;;;;1030238;28;20056;-73
2023/04/24 02:17:46;;;;;;;5.38;1.98;;;;;;;;;;1028482;28;20037;-73
2023/04/24 02:18:17;;;;;;;16.77;4.50;;;;;;;;;;1029259;28;20025;-75
2023/04/24 02:18:47;;;;;;;11.27;2.47;;;;;;;;;;1026180;28;20045;-74
2023/04/24 02:19:18;;;;;;;7.22;2.53;;;;;;;;;;1026585;28;20022;-74
2023/04/24 02:19:49;;;;;;;2.38;1.40;;;;;;;;;;1025895;28;20038;-74
2023/04/24 02:20:19;;;;;;;8.13;2.22;;;;;;;;;;1026009;28;20200;-74
2023/04/24 02:20:50;;;;;;;24.65;1.33;;;;;;;;;;1030293;28;20049;-74
2023/04/24 02:21:20;;;;;;;3.33;1.70;;;;;;;;;;1030650;28;20041;-74
2023/04/24 02:21:51;;;;;;;5.47;1.65;;;;;;;;;;1031083;28;20050;-74
2023/04/24 02:22:21;;;;;;;2.70;1.73;;;;;;;;;;1029842;28;20034;-74
2023/04/24 02:22:52;;;;;;;8.38;2.28;;;;;;;;;;1025790;28;20046;-74
2023/04/24 02:23:22;;;;;;;10.45;2.88;;;;;;;;;;1025095;28;20026;-74
2023/04/24 02:23:53;;;;;;;6.82;2.83;;;;;;;;;;1025880;28;20030;-74
2023/04/24 02:24:24;;;;;;;11.02;2.97;;;;;;;;;;1025317;28;20030;-74
2023/04/24 02:24:55;;;;;;;8.18;2.13;;;;;;;;;;1026050;28;20419;-74
2023/04/24 02:25:25;;;;;;;13.95;1.75;;;;;;;;;;1025980;28;20030;-74
2023/04/24 02:25:56;;;;;;;19.50;2.92;;;;;;;;;;1022759;28;20593;-74
2023/04/24 02:26:26;;;;;;;15.13;3.05;;;;;;;;;;1024820;28;20506;-74
2023/04/24 02:26:57;;;;;;;4.63;1.92;;;;;;;;;;1022547;28;20035;-74
2023/04/24 02:27:28;;;;;;;16.02;1.50;;;;;;;;;;1022959;28;20484;-74
2023/04/24 02:27:58;;;;;;;4.40;2.38;;;;;;;;;;1022631;28;20027;-74
2023/04/24 02:28:29;;;;;;;7.10;1.73;;;;;;;;;;1021037;29;20031;-74
2023/04/24 02:28:59;;;;;;;7.38;1.92;;;;;;;;;;1022523;29;20050;-74
2023/04/24 02:29:30;;;;;;;3.33;1.42;;;;;;;;;;1021575;28;20023;-74
2023/04/24 02:30:01;;;;;;;15.13;3.58;;;;;;;;;;1021924;28;20492;-74
2023/04/24 02:30:31;;;;;;;3.53;2.20;;;;;;;;;;1025937;28;20023;-74
2023/04/24 02:31:02;;;;;;;6.45;1.98;;;;;;;;;;1023978;28;20376;-74
2023/04/24 02:31:32;;;;;;;6.97;1.60;;;;;;;;;;1025676;28;20023;-74
2023/04/24 02:32:03;;;;;;;5.40;2.33;;;;;;;;;;1025450;28;20495;-74
2023/04/24 02:32:33;;;;;;;3.45;2.70;;;;;;;;;;1025878;28;20341;-73
2023/04/24 02:33:04;;;;;;;6.88;3.22;;;;;;;;;;1026900;28;20019;-72
2023/04/24 02:33:35;;;;;;;12.35;3.15;;;;;;;;;;1026153;28;20509;-72
2023/04/24 02:34:07;;;;;;;14.00;3.53;;;;;;;;;;1025211;28;20039;-74
2023/04/24 02:34:38;;;;;;;20.00;4.65;;;;;;;;;;1025078;28;20692;-73
2023/04/24 02:35:08;;;;;;;5.22;3.30;;;;;;;;;;1027679;28;20045;-72
2023/04/24 02:35:39;;;;;;;12.95;4.18;;;;;;;;;;1028389;28;20030;-73
2023/04/24 02:36:09;;;;;;;5.93;2.90;;;;;;;;;;1030556;28;20034;-73
2023/04/24 02:36:40;;;;;;;6.70;2.60;;;;;;;;;;1027819;28;20585;-72
2023/04/24 02:37:10;;;;;;;5.78;3.05;;;;;;;;;;1028721;28;20445;-73
2023/04/24 02:37:41;;;;;;;12.93;3.70;;;;;;;;;;1027183;28;20578;-73
2023/04/24 02:38:11;;;;;;;9.23;4.03;;;;;;;;;;1027441;28;20108;-73
2023/04/24 02:38:42;;;;;;;6.65;3.63;;;;;;;;;;1029037;28;20022;-74
2023/04/24 02:39:13;;;;;;;11.77;4.88;;;;;;;;;;1023869;28;20030;-74
2023/04/24 02:39:44;;;;;;;22.13;3.60;;;;;;;;;;1024161;28;20510;-73
2023/04/24 02:40:14;;;;;;;14.70;4.10;;;;;;;;;;1024510;28;20030;-73
2023/04/24 02:40:45;;;;;;;6.25;3.38;;;;;;;;;;1023819;28;20045;-73
2023/04/24 02:41:15;;;;;;;8.27;3.08;;;;;;;;;;1029851;28;20003;-73
2023/04/24 02:41:46;;;;;;;11.38;2.75;;;;;;;;;;1029266;28;20566;-73
2023/04/24 02:42:16;;;;;;;13.25;2.75;;;;;;;;;;1029525;28;20395;-73
2023/04/24 02:42:47;;;;;;;5.93;2.70;;;;;;;;;;1028739;28;20033;-73
2023/04/24 02:43:17;;;;;;;2.30;1.70;;;;;;;;;;1029034;28;20514;-73
2023/04/24 02:43:48;;;;;;;3.67;2.22;;;;;;;;;;1028541;28;20030;-73
2023/04/24 02:44:18;;;;;;;10.20;3.30;;;;;;;;;;1026033;28;20066;-74
2023/04/24 02:44:50;;;;;;;4.82;2.90;;;;;;;;;;1021606;28;20125;-73
2023/04/24 02:45:21;;;;;;;6.00;3.22;;;;;;;;;;1023746;28;20741;-73
2023/04/24 02:45:51;;;;;;;8.10;2.80;;;;;;;;;;1023669;28;20030;-73
2023/04/24 02:46:22;;;;;;;13.80;4.05;;;;;;;;;;1026870;28;20037;-74
2023/04/24 02:46:52;;;;;;;6.43;1.90;;;;;;;;;;1026614;28;21516;-73
2023/04/24 02:47:23;;;;;;;4.15;2.63;;;;;;;;;;1024801;28;20125;-73
2023/04/24 02:47:54;;;;;;;4.78;1.83;;;;;;;;;;1024572;28;20392;-73
2023/04/24 02:48:24;;;;;;;7.25;3.47;;;;;;;;;;1024662;28;20023;-74
2023/04/24 02:48:55;;;;;;;10.25;2.63;;;;;;;;;;1024780;28;20057;-74
2023/04/24 02:49:25;;;;;;;3.40;2.15;;;;;;;;;;1028140;28;20036;-74
2023/04/24 02:49:56;;;;;;;3.67;2.45;;;;;;;;;;1026555;28;20410;-74
2023/04/24 02:50:26;;;;;;;3.95;1.42;;;;;;;;;;1028377;28;20030;-73
2023/04/24 02:50:57;;;;;;;8.68;3.47;;;;;;;;;;1026400;28;20495;-74
2023/04/24 02:51:28;;;;;;;6.28;3.55;;;;;;;;;;1025026;28;20023;-74
2023/04/24 02:51:58;;;;;;;3.92;2.47;;;;;;;;;;1024503;28;20041;-74
2023/04/24 02:52:29;;;;;;;3.47;1.70;;;;;;;;;;1024867;28;20023;-74
2023/04/24 02:52:59;;;;;;;10.00;3.72;;;;;;;;;;1025150;28;20034;-74
2023/04/24 02:53:30;;;;;;;5.95;2.97;;;;;;;;;;1020423;28;20515;-74
2023/04/24 02:54:01;;;;;;;9.63;1.98;;;;;;;;;;1027391;28;20198;-74
2023/04/24 02:54:31;;;;;;;7.60;1.98;;;;;;;;;;1027365;28;20475;-74
2023/04/24 02:55:02;;;;;;;9.55;2.85;;;;;;;;;;1029160;28;20028;-75
2023/04/24 02:55:32;;;;;;;7.10;2.67;;;;;;;;;;1028550;28;20030;-74
2023/04/24 02:56:03;;;;;;;6.75;2.50;;;;;;;;;;1030788;28;20482;-74
2023/04/24 02:56:34;;;;;;;5.20;1.88;;;;;;;;;;1029318;28;20470;-74
2023/04/24 02:57:05;;;;;;;3.38;1.60;;;;;;;;;;1028129;28;20121;-74
2023/04/24 02:57:36;;;;;;;3.67;1.90;;;;;;;;;;1020114;29;20038;-74
2023/04/24 02:58:07;;;;;;;7.00;2.28;;;;;;;;;;1020380;29;20502;-74
2023/04/24 02:58:37;;;;;;;11.30;2.83;;;;;;;;;;1018954;29;20031;-74
2023/04/24 02:59:08;;;;;;;4.43;1.95;;;;;;;;;;1020620;28;20538;-74
2023/04/24 02:59:38;;;;;;;2.30;1.58;;;;;;;;;;1028781;28;20648;-74
2023/04/24 03:00:11;;;;;;;2.20;1.02;;;;;;;;;;1023732;28;20136;-74
2023/04/24 03:00:43;;;;;;;4.30;1.75;;;;;;;;;;1020426;29;20026;-76
2023/04/24 03:01:14;;;;;;;8.52;2.45;;;;;;;;;;1017188;29;20016;-76
2023/04/24 03:01:45;;;;;;;2.28;1.08;;;;;;;;;;1012992;29;20402;-75
2023/04/24 03:02:15;;;;;;;2.33;1.02;;;;;;;;;;1017197;29;20028;-75
2023/04/24 03:02:46;;;;;;;6.15;1.40;;;;;;;;;;1019663;28;20692;-75
2023/04/24 03:03:16;;;;;;;2.60;1.50;;;;;;;;;;1025004;28;20018;-75
2023/04/24 03:03:47;;;;;;;1.95;1.52;;;;;;;;;;1028890;28;20129;-75